Time;durP1;ratioP1;P1;durP2;ratioP2;P2;SDS_P1;SDS_P2;PMS_P1;PMS_P2;Temp;Humidity;BMP_temperature;BMP_pressure;BME280_temperature;BME280_humidity;BME280_pressure;Samples;Min_cycle;Max_cycle;Signal;HPM_P1;HPM_P2
2022/04/14 00:01:01;;;;;;;6.10;2.53;;;14.20;99.90;;;;;;5063271;22;20499;-80
2022/04/14 00:03:26;;;;;;;4.37;2.70;;;14.20;99.90;;;;;;5014528;28;20838;-79
2022/04/14 00:05:52;;;;;;;6.67;2.50;;;14.50;99.90;;;;;;5014670;28;20468;-80
2022/04/14 00:08:18;;;;;;;4.10;2.40;;;14.40;99.90;;;;;;5014750;28;20458;-80
2022/04/14 00:10:43;;;;;;;6.43;2.47;;;14.30;99.90;;;;;;5014636;28;20393;-80
2022/04/14 00:13:09;;;;;;;5.45;2.60;;;14.20;99.90;;;;;;5014597;28;20412;-80
2022/04/14 00:15:34;;;;;;;4.47;2.28;;;14.10;99.90;;;;;;5014361;28;20384;-80
2022/04/14 00:18:00;;;;;;;4.57;2.38;;;14.20;99.90;;;;;;5014183;28;20511;-80
2022/04/14 00:20:26;;;;;;;5.82;2.58;;;14.20;99.90;;;;;;5014220;28;20384;-80
2022/04/14 00:22:51;;;;;;;5.13;2.43;;;14.20;99.90;;;;;;5014090;28;20393;-80
2022/04/14 00:25:17;;;;;;;6.40;2.63;;;14.20;99.90;;;;;;5014590;28;20392;-81
2022/04/14 00:27:43;;;;;;;4.70;2.50;;;14.00;99.90;;;;;;5014732;28;20393;-80
2022/04/14 00:30:10;;;;;;;5.37;2.43;;;13.90;99.90;;;;;;5014479;28;20932;-80
2022/04/14 00:32:35;;;;;;;3.53;2.30;;;13.80;99.90;;;;;;5013812;28;20404;-80
2022/04/14 00:35:01;;;;;;;6.30;2.80;;;13.90;99.90;;;;;;5014593;28;20389;-80
2022/04/14 00:37:27;;;;;;;6.00;2.47;;;13.90;99.90;;;;;;5014328;28;20864;-80
2022/04/14 00:39:52;;;;;;;3.63;2.20;;;13.90;99.90;;;;;;5014100;28;20393;-79
2022/04/14 00:42:18;;;;;;;5.43;2.40;;;13.90;99.90;;;;;;5013880;28;20384;-80
2022/04/14 00:44:44;;;;;;;6.03;2.23;;;13.90;99.90;;;;;;5014747;28;20715;-80
2022/04/14 00:47:13;;;;;;;6.17;2.37;;;13.70;99.90;;;;;;5014585;28;20432;-80
2022/04/14 00:49:39;;;;;;;4.57;2.10;;;13.70;99.90;;;;;;5013658;28;20450;-80
2022/04/14 00:52:06;;;;;;;5.20;2.35;;;13.70;99.90;;;;;;5014414;28;20416;-80
2022/04/14 00:54:32;;;;;;;4.05;2.40;;;13.60;99.90;;;;;;5013940;28;20471;-80
2022/04/14 00:57:03;;;;;;;4.60;2.40;;;13.50;99.90;;;;;;5013620;28;20896;-80
2022/04/14 00:59:29;;;;;;;4.93;2.33;;;13.50;99.90;;;;;;5013619;28;20874;-80
2022/04/14 01:01:55;;;;;;;3.85;2.38;;;13.50;99.90;;;;;;5013329;28;20411;-80
2022/04/14 01:04:21;;;;;;;4.95;2.30;;;13.50;99.90;;;;;;5013806;28;20384;-79
2022/04/14 01:06:48;;;;;;;4.10;2.10;;;13.60;99.90;;;;;;5013631;28;20505;-80
2022/04/14 01:09:16;;;;;;;3.65;1.80;;;13.60;99.90;;;;;;5013645;28;20476;-80
2022/04/14 01:11:50;;;;;;;6.80;2.37;;;13.50;99.90;;;;;;5013517;28;20462;-79
2022/04/14 01:14:29;;;;;;;4.97;2.40;;;13.50;99.90;;;;;;5013559;28;20409;-80
2022/04/14 01:17:05;;;;;;;5.88;2.30;;;13.50;99.90;;;;;;5013579;28;20381;-80
2022/04/14 01:19:31;;;;;;;4.50;2.20;;;13.40;99.90;;;;;;5013084;28;20385;-79
2022/04/14 01:22:08;;;;;;;6.50;2.50;;;13.40;99.90;;;;;;5013418;28;20794;-79
2022/04/14 01:24:35;;;;;;;4.15;2.13;;;13.40;99.90;;;;;;5013040;28;20900;-80
2022/04/14 01:27:01;;;;;;;4.37;2.17;;;13.40;99.90;;;;;;5013075;28;20388;-80
2022/04/14 01:29:28;;;;;;;3.53;2.08;;;13.30;99.90;;;;;;5013012;28;20420;-80
2022/04/14 01:31:55;;;;;;;4.18;2.28;;;13.20;99.90;;;;;;5012933;28;20388;-80
2022/04/14 01:34:21;;;;;;;5.25;2.30;;;13.10;99.90;;;;;;5012967;28;20853;-80
2022/04/14 01:36:47;;;;;;;4.88;2.30;;;13.00;99.90;;;;;;5013033;28;20436;-80
2022/04/14 01:39:14;;;;;;;4.95;2.42;;;13.10;99.90;;;;;;5013216;28;20381;-80
2022/04/14 01:41:41;;;;;;;3.30;2.20;;;13.00;99.90;;;;;;5011425;28;20928;-80
2022/04/14 01:44:08;;;;;;;5.20;2.35;;;12.90;99.90;;;;;;5012396;28;20886;-80
2022/04/14 01:46:34;;;;;;;4.80;2.42;;;12.80;99.90;;;;;;5012719;28;20392;-80
2022/04/14 01:49:00;;;;;;;3.05;2.10;;;12.80;99.90;;;;;;5012761;28;20383;-80
2022/04/14 01:51:26;;;;;;;4.63;2.47;;;12.80;99.90;;;;;;5012662;28;20949;-80
2022/04/14 01:53:52;;;;;;;3.83;2.45;;;13.20;99.90;;;;;;5012627;28;20409;-80
2022/04/14 01:56:18;;;;;;;5.30;2.70;;;12.80;99.90;;;;;;5013218;28;20957;-79
2022/04/14 01:58:44;;;;;;;5.15;2.35;;;12.90;99.90;;;;;;5012644;28;20416;-80
2022/04/14 02:01:10;;;;;;;6.68;2.53;;;12.80;99.90;;;;;;5012289;28;20426;-81
2022/04/14 02:03:36;;;;;;;5.32;2.42;;;12.70;99.90;;;;;;5012400;28;20416;-80
2022/04/14 02:06:02;;;;;;;5.45;2.40;;;12.60;99.90;;;;;;5012335;28;20389;-80
2022/04/14 02:08:28;;;;;;;3.97;2.03;;;12.50;99.90;;;;;;5011550;28;20393;-80
2022/04/14 02:10:54;;;;;;;5.28;2.25;;;12.50;99.90;;;;;;5010620;28;20464;-80
2022/04/14 02:13:20;;;;;;;4.30;2.47;;;12.40;99.90;;;;;;5011525;28;20458;-79
2022/04/14 02:15:45;;;;;;;4.20;2.20;;;12.40;99.90;;;;;;5012452;28;20949;-80
2022/04/14 02:18:11;;;;;;;5.15;2.40;;;12.40;99.90;;;;;;5012413;28;20389;-80
2022/04/14 02:20:36;;;;;;;6.47;2.47;;;12.40;99.90;;;;;;5011655;28;20870;-80
2022/04/14 02:23:03;;;;;;;3.47;2.30;;;12.50;99.90;;;;;;5012278;28;20472;-80
2022/04/14 02:25:29;;;;;;;5.22;2.20;;;12.50;99.90;;;;;;5012618;28;20388;-80
2022/04/14 02:27:54;;;;;;;4.97;2.47;;;12.40;99.90;;;;;;5012282;28;20754;-80
2022/04/14 02:30:20;;;;;;;5.05;2.60;;;12.40;99.90;;;;;;5012339;28;20750;-80
2022/04/14 02:32:46;;;;;;;4.70;2.60;;;12.40;99.90;;;;;;5012179;28;20778;-80
2022/04/14 02:35:11;;;;;;;4.53;2.58;;;12.40;99.90;;;;;;5012279;28;20384;-80
2022/04/14 02:37:37;;;;;;;3.50;2.40;;;12.30;99.90;;;;;;5012410;28;20373;-80
2022/04/14 02:40:04;;;;;;;7.30;2.80;;;12.40;99.90;;;;;;5012255;28;20801;-81
2022/04/14 02:42:30;;;;;;;5.28;2.63;;;12.40;99.90;;;;;;5012152;28;20753;-80
2022/04/14 02:44:56;;;;;;;5.20;2.17;;;12.40;99.90;;;;;;5012200;28;20397;-80
2022/04/14 02:47:21;;;;;;;5.83;2.67;;;12.60;99.90;;;;;;5012326;28;20428;-81
2022/04/14 02:49:47;;;;;;;3.50;2.20;;;12.50;99.90;;;;;;5012147;28;20913;-79
2022/04/14 02:52:13;;;;;;;7.47;2.57;;;12.20;99.90;;;;;;5012208;28;20468;-80
2022/04/14 02:54:39;;;;;;;3.60;2.40;;;12.10;99.90;;;;;;5012433;28;20393;-80
2022/04/14 02:57:09;;;;;;;6.97;2.60;;;12.10;99.90;;;;;;5014060;28;20413;-79
2022/04/14 02:59:36;;;;;;;4.00;2.15;;;12.20;99.90;;;;;;5013718;28;20389;-79
2022/04/14 03:02:02;;;;;;;6.27;2.83;;;12.10;99.90;;;;;;5013524;28;20447;-79
2022/04/14 03:04:29;;;;;;;4.53;2.50;;;12.10;99.90;;;;;;5013785;28;20483;-79
2022/04/14 03:06:55;;;;;;;4.80;2.38;;;12.10;99.90;;;;;;5013677;28;20463;-79
2022/04/14 03:09:21;;;;;;;6.18;2.65;;;12.00;99.90;;;;;;5013853;28;20381;-79
2022/04/14 03:11:47;;;;;;;4.65;2.42;;;12.00;99.90;;;;;;5014558;28;20940;-79
2022/04/14 03:14:12;;;;;;;4.50;2.67;;;11.90;99.90;;;;;;5015381;28;20439;-79
2022/04/14 03:16:38;;;;;;;5.97;2.50;;;11.90;99.90;;;;;;5015580;28;20565;-79
2022/04/14 03:19:04;;;;;;;5.38;2.30;;;11.80;99.90;;;;;;5015828;28;20484;-79
2022/04/14 03:21:30;;;;;;;4.78;2.67;;;11.90;99.90;;;;;;5015450;28;20884;-79
2022/04/14 03:23:55;;;;;;;4.57;2.38;;;11.80;99.90;;;;;;5015523;28;20416;-79
2022/04/14 03:26:21;;;;;;;7.32;2.70;;;11.70;99.90;;;;;;5015471;28;20385;-79
2022/04/14 03:28:46;;;;;;;5.53;2.80;;;11.80;99.90;;;;;;5015509;28;20393;-79
2022/04/14 03:31:12;;;;;;;6.53;2.67;;;11.70;99.90;;;;;;5015484;28;20389;-79
2022/04/14 03:33:38;;;;;;;4.18;2.60;;;11.70;99.90;;;;;;5015340;28;20405;-79
2022/04/14 03:36:04;;;;;;;4.82;2.38;;;11.60;99.90;;;;;;5015009;28;20384;-79
2022/04/14 03:38:31;;;;;;;6.20;2.80;;;11.50;99.90;;;;;;5015129;28;21016;-79
2022/04/14 03:40:59;;;;;;;6.68;2.92;;;11.50;99.90;;;;;;5014971;28;20393;-79
2022/04/14 03:43:25;;;;;;;9.27;3.00;;;11.50;99.90;;;;;;5015186;28;20381;-79
2022/04/14 03:45:51;;;;;;;6.07;2.95;;;11.50;99.90;;;;;;5014765;28;20391;-79
2022/04/14 03:48:17;;;;;;;6.93;3.10;;;11.50;99.90;;;;;;5015213;28;20475;-79
2022/04/14 03:50:42;;;;;;;4.77;2.77;;;11.50;99.90;;;;;;5014729;28;20824;-79
2022/04/14 03:53:08;;;;;;;7.90;2.70;;;11.50;99.90;;;;;;5014986;28;20435;-79
2022/04/14 03:55:34;;;;;;;5.87;2.87;;;11.50;99.90;;;;;;5014028;28;20781;-79
2022/04/14 03:57:59;;;;;;;5.73;2.60;;;11.50;99.90;;;;;;5015195;28;20389;-79
2022/04/14 04:00:25;;;;;;;5.20;2.85;;;11.60;99.90;;;;;;5015411;28;20737;-79
2022/04/14 04:02:51;;;;;;;4.30;2.78;;;11.60;99.90;;;;;;5014301;28;20400;-79
2022/04/14 04:05:17;;;;;;;5.60;2.90;;;11.50;99.90;;;;;;5014551;28;20396;-78
2022/04/14 04:07:42;;;;;;;4.83;2.80;;;11.50;99.90;;;;;;5014151;28;20869;-79
2022/04/14 04:10:08;;;;;;;5.23;2.67;;;11.40;99.90;;;;;;5014300;28;20403;-79
2022/04/14 04:12:34;;;;;;;7.85;2.88;;;11.30;99.90;;;;;;5014274;28;20401;-79
2022/04/14 04:15:00;;;;;;;5.17;3.07;;;11.50;99.90;;;;;;5014280;28;20385;-79
2022/04/14 04:17:25;;;;;;;7.23;2.90;;;11.40;99.90;;;;;;5014519;28;20480;-79
2022/04/14 04:19:51;;;;;;;8.02;2.65;;;11.50;99.90;;;;;;5014545;28;20389;-79
2022/04/14 04:22:16;;;;;;;6.47;3.03;;;11.50;99.90;;;;;;5014197;28;20404;-79
2022/04/14 04:24:42;;;;;;;8.43;2.88;;;11.50;99.90;;;;;;5014369;28;20381;-79
2022/04/14 04:27:08;;;;;;;4.95;2.60;;;11.50;99.90;;;;;;5014087;28;20395;-79
2022/04/14 04:29:34;;;;;;;4.47;2.75;;;11.50;99.90;;;;;;5014123;28;20421;-79
2022/04/14 04:32:00;;;;;;;5.50;2.60;;;11.20;99.90;;;;;;5014001;28;20408;-79
2022/04/14 04:34:26;;;;;;;7.50;2.83;;;11.10;99.90;;;;;;5014157;28;20862;-79
2022/04/14 04:36:52;;;;;;;5.82;3.20;;;11.10;99.90;;;;;;5014543;28;20726;-79
2022/04/14 04:39:17;;;;;;;4.75;2.67;;;10.90;99.90;;;;;;5014133;28;20381;-79
2022/04/14 04:41:43;;;;;;;6.18;3.00;;;11.20;99.90;;;;;;5013722;28;20389;-78
2022/04/14 04:44:09;;;;;;;6.60;3.03;;;11.30;99.90;;;;;;5013656;28;20392;-79
2022/04/14 04:46:35;;;;;;;5.22;2.92;;;11.20;99.90;;;;;;5013737;28;20392;-79
2022/04/14 04:49:02;;;;;;;5.80;2.95;;;11.60;99.90;;;;;;5013572;28;20908;-79
2022/04/14 04:51:28;;;;;;;7.35;3.05;;;11.00;99.90;;;;;;5013580;28;20753;-80
2022/04/14 04:53:54;;;;;;;4.67;3.00;;;11.10;99.90;;;;;;5013460;28;20469;-79
2022/04/14 04:56:19;;;;;;;4.95;2.80;;;11.00;99.90;;;;;;5013524;28;20889;-79
2022/04/14 04:58:46;;;;;;;9.50;3.28;;;10.90;99.90;;;;;;5013739;28;20403;-79
2022/04/14 05:01:12;;;;;;;6.20;3.42;;;10.90;99.90;;;;;;5013242;28;20431;-79
2022/04/14 05:03:38;;;;;;;5.15;2.97;;;10.90;99.90;;;;;;5013323;28;20384;-79
2022/04/14 05:06:03;;;;;;;6.13;3.25;;;11.00;99.90;;;;;;5013383;28;20412;-79
2022/04/14 05:08:29;;;;;;;6.40;3.00;;;11.00;99.90;;;;;;5013256;28;20877;-78
2022/04/14 05:10:55;;;;;;;6.38;3.00;;;11.00;99.90;;;;;;5013637;28;20404;-78
2022/04/14 05:13:20;;;;;;;5.85;2.92;;;11.10;99.90;;;;;;5013415;28;20411;-78
2022/04/14 05:15:46;;;;;;;5.00;2.80;;;10.90;99.90;;;;;;5013141;28;20387;-79
2022/04/14 05:18:11;;;;;;;7.60;3.10;;;10.90;99.90;;;;;;5012487;28;20387;-79
2022/04/14 05:20:38;;;;;;;5.67;2.90;;;11.00;99.90;;;;;;5012972;28;20385;-78
2022/04/14 05:23:07;;;;;;;6.18;3.25;;;10.90;99.90;;;;;;5013128;28;20388;-79
2022/04/14 05:25:33;;;;;;;10.20;3.63;;;10.80;99.90;;;;;;5013237;28;20742;-80
2022/04/14 05:27:59;;;;;;;7.63;3.45;;;10.90;99.90;;;;;;5012008;28;20483;-78
2022/04/14 05:30:25;;;;;;;7.47;3.45;;;11.00;99.90;;;;;;5011914;28;20463;-79
2022/04/14 05:32:50;;;;;;;6.05;3.72;;;11.00;99.90;;;;;;5012535;28;20408;-79
2022/04/14 05:35:16;;;;;;;5.45;3.53;;;10.90;99.90;;;;;;5012648;28;20931;-79
2022/04/14 05:37:42;;;;;;;6.13;3.30;;;11.20;99.90;;;;;;5012960;28;20912;-79
2022/04/14 05:40:11;;;;;;;6.95;3.30;;;11.10;99.90;;;;;;5012906;28;20389;-79
2022/04/14 05:42:37;;;;;;;4.75;3.28;;;11.20;99.90;;;;;;5012822;28;20396;-79
2022/04/14 05:45:02;;;;;;;4.67;2.77;;;11.40;99.90;;;;;;5012697;28;20392;-79
2022/04/14 05:47:28;;;;;;;9.32;3.67;;;11.50;99.90;;;;;;5012723;28;20396;-79
2022/04/14 05:49:54;;;;;;;7.87;3.50;;;11.50;99.90;;;;;;5012757;28;20408;-79
2022/04/14 05:52:20;;;;;;;6.37;3.83;;;11.60;99.90;;;;;;5012531;28;20396;-79
2022/04/14 05:54:47;;;;;;;4.80;3.47;;;11.60;99.90;;;;;;5012640;28;20862;-78
2022/04/14 05:57:13;;;;;;;5.88;4.07;;;11.80;99.90;;;;;;5012698;28;20472;-79
2022/04/14 05:59:39;;;;;;;6.38;3.88;;;11.90;99.90;;;;;;5012539;28;20450;-78
2022/04/14 06:02:05;;;;;;;6.15;3.47;;;11.80;99.90;;;;;;5124758;22;20894;-80
2022/04/14 06:04:30;;;;;;;7.25;3.65;;;11.90;99.90;;;;;;5052172;28;20389;-80
2022/04/14 06:06:56;;;;;;;6.20;3.40;;;11.90;99.90;;;;;;5052183;28;20385;-84
2022/04/14 06:09:22;;;;;;;9.45;3.85;;;11.80;99.90;;;;;;5052126;28;20842;-85
2022/04/14 06:11:48;;;;;;;8.48;3.50;;;12.00;99.90;;;;;;5051983;28;20389;-84
2022/04/14 06:14:13;;;;;;;5.63;3.45;;;12.00;99.90;;;;;;5052261;28;20731;-83
2022/04/14 06:16:39;;;;;;;8.63;3.95;;;12.20;99.90;;;;;;5052029;28;20893;-84
2022/04/14 06:19:04;;;;;;;6.73;3.60;;;12.40;99.90;;;;;;5052034;28;20908;-84
2022/04/14 06:21:35;;;;;;;7.67;3.70;;;12.50;99.90;;;;;;5051956;28;20935;-83
2022/04/14 06:24:01;;;;;;;6.78;3.72;;;12.40;99.90;;;;;;5051756;28;20496;-83
2022/04/14 06:26:30;;;;;;;6.95;4.00;;;12.30;99.90;;;;;;5051875;28;20399;-83
2022/04/14 06:28:56;;;;;;;7.85;4.25;;;12.30;99.90;;;;;;5052520;28;20404;-83
2022/04/14 06:31:21;;;;;;;8.13;4.20;;;12.30;99.90;;;;;;5054503;28;20385;-83
2022/04/14 06:33:48;;;;;;;7.85;4.60;;;12.50;99.90;;;;;;5055773;28;20890;-83
2022/04/14 06:36:14;;;;;;;9.33;5.00;;;12.50;99.90;;;;;;5055744;28;20385;-83
2022/04/14 06:38:40;;;;;;;9.82;4.63;;;12.80;99.90;;;;;;5056324;28;20388;-84
2022/04/14 06:41:06;;;;;;;8.35;5.72;;;12.80;99.90;;;;;;5055914;28;20392;-84
2022/04/14 06:43:32;;;;;;;9.57;5.50;;;12.90;99.90;;;;;;5055734;28;20427;-84
2022/04/14 06:46:03;;;;;;;12.70;6.30;;;12.90;99.90;;;;;;5055665;28;20381;-83
2022/04/14 06:48:32;;;;;;;7.15;4.90;;;13.10;99.90;;;;;;5055970;28;20373;-84
2022/04/14 06:50:59;;;;;;;8.07;4.40;;;13.00;99.90;;;;;;5055507;28;20397;-84
2022/04/14 06:53:25;;;;;;;5.57;3.63;;;12.80;99.90;;;;;;5037423;28;20405;-84
2022/04/14 06:55:53;;;;;;;7.53;3.60;;;12.70;99.90;;;;;;5055561;28;20465;-84
2022/04/14 06:58:19;;;;;;;7.05;3.50;;;12.70;99.90;;;;;;5053984;28;20389;-83
2022/04/14 07:00:45;;;;;;;5.07;3.63;;;12.60;99.90;;;;;;5054223;28;20817;-84
2022/04/14 07:03:11;;;;;;;5.95;3.40;;;12.60;99.90;;;;;;5055245;28;20898;-84
2022/04/14 07:05:37;;;;;;;7.87;3.70;;;12.80;99.90;;;;;;5055486;28;20850;-84
2022/04/14 07:08:02;;;;;;;6.73;3.60;;;12.90;99.90;;;;;;5055592;28;20385;-84
2022/04/14 07:10:28;;;;;;;7.07;3.38;;;12.80;99.90;;;;;;5055269;28;20378;-82
2022/04/14 07:12:55;;;;;;;6.53;3.63;;;13.00;99.90;;;;;;5055135;28;20910;-82
2022/04/14 07:15:21;;;;;;;6.78;3.85;;;13.00;99.90;;;;;;5055700;28;20524;-82
2022/04/14 07:17:47;;;;;;;10.10;3.60;;;13.00;99.90;;;;;;5055158;28;20385;-82
2022/04/14 07:20:13;;;;;;;7.47;3.80;;;13.10;99.90;;;;;;5055346;28;20499;-82
2022/04/14 07:22:41;;;;;;;6.97;3.75;;;13.20;99.90;;;;;;5054894;28;20957;-82
2022/04/14 07:25:07;;;;;;;9.02;3.70;;;13.20;99.90;;;;;;5054959;28;20407;-82
2022/04/14 07:27:32;;;;;;;9.23;3.55;;;13.30;99.90;;;;;;5054789;28;20862;-82
2022/04/14 07:29:58;;;;;;;8.02;3.88;;;13.30;99.90;;;;;;5054843;28;20389;-82
2022/04/14 07:32:24;;;;;;;8.30;3.87;;;13.40;99.90;;;;;;5054652;28;20377;-82
2022/04/14 07:34:51;;;;;;;8.00;3.40;;;13.60;99.90;;;;;;5054752;28;20385;-82
2022/04/14 07:37:16;;;;;;;6.88;3.90;;;13.60;99.90;;;;;;5054852;28;20389;-82
2022/04/14 07:39:42;;;;;;;6.77;3.60;;;13.60;99.90;;;;;;5054722;28;20431;-83
2022/04/14 07:42:08;;;;;;;6.70;3.70;;;13.70;99.90;;;;;;5054011;28;20454;-82
2022/04/14 07:44:33;;;;;;;6.83;3.63;;;13.80;99.90;;;;;;5054797;28;20424;-82
2022/04/14 07:46:59;;;;;;;6.20;3.30;;;13.80;99.90;;;;;;5054820;28;20470;-83
2022/04/14 07:49:27;;;;;;;7.03;3.20;;;14.00;99.90;;;;;;5037145;28;20405;-83
2022/04/14 07:51:55;;;;;;;8.20;3.90;;;14.00;99.90;;;;;;5036523;28;20798;-83
2022/04/14 07:54:21;;;;;;;7.93;3.63;;;14.20;99.90;;;;;;5054528;28;20409;-83
2022/04/14 07:56:47;;;;;;;8.55;3.42;;;14.50;99.90;;;;;;5054642;28;20382;-83
2022/04/14 07:59:12;;;;;;;9.40;4.40;;;14.50;99.90;;;;;;5054297;28;20446;-83
2022/04/14 08:01:38;;;;;;;7.45;4.07;;;14.60;99.90;;;;;;5054069;28;20465;-83
2022/04/14 08:04:04;;;;;;;7.45;3.53;;;14.60;99.90;;;;;;5054268;28;20389;-84
2022/04/14 08:06:31;;;;;;;7.25;3.95;;;14.70;99.90;;;;;;5036370;28;20400;-83
2022/04/14 08:08:57;;;;;;;5.78;3.30;;;14.80;99.90;;;;;;5054013;28;20793;-83
2022/04/14 08:11:25;;;;;;;6.68;3.40;;;14.90;99.90;;;;;;5052912;28;20389;-83
2022/04/14 08:13:51;;;;;;;9.45;3.60;;;15.00;99.90;;;;;;5056375;28;20401;-83
2022/04/14 08:16:16;;;;;;;6.13;3.33;;;15.10;99.90;;;;;;5057647;28;20389;-84
2022/04/14 08:18:42;;;;;;;8.27;3.70;;;15.10;99.90;;;;;;5052731;28;20400;-84
2022/04/14 08:21:08;;;;;;;6.77;3.67;;;15.10;99.90;;;;;;5053880;28;20985;-84
2022/04/14 08:23:38;;;;;;;7.82;3.88;;;15.20;99.90;;;;;;5053777;28;20389;-84
2022/04/14 08:26:08;;;;;;;7.18;4.10;;;15.30;99.90;;;;;;5053638;28;20428;-84
2022/04/14 08:28:41;;;;;;;8.40;4.72;;;15.40;99.90;;;;;;5053907;28;20734;-85
2022/04/14 08:31:10;;;;;;;8.68;3.90;;;15.60;99.90;;;;;;5053544;28;20472;-84
2022/04/14 08:33:39;;;;;;;6.45;4.13;;;15.80;99.90;;;;;;5053535;28;20487;-84
2022/04/14 08:36:07;;;;;;;11.17;4.83;;;15.90;99.90;;;;;;5053794;28;20461;-84
2022/04/14 08:38:33;;;;;;;8.30;4.28;;;15.90;99.90;;;;;;5053568;28;20527;-85
2022/04/14 08:41:03;;;;;;;8.30;4.00;;;15.90;99.90;;;;;;5053734;28;20537;-85
2022/04/14 08:43:35;;;;;;;7.47;3.75;;;16.20;99.90;;;;;;5054049;28;20377;-84
2022/04/14 08:46:02;;;;;;;10.85;4.30;;;16.20;99.90;;;;;;5053352;28;20389;-84
2022/04/14 08:48:28;;;;;;;8.20;5.25;;;16.30;99.90;;;;;;5052005;28;20874;-85
2022/04/14 08:50:55;;;;;;;10.48;5.05;;;16.30;99.90;;;;;;5053310;28;20393;-85
2022/04/14 08:53:25;;;;;;;9.88;5.50;;;16.40;99.90;;;;;;5052071;28;20413;-85
2022/04/14 08:55:51;;;;;;;10.52;5.50;;;16.40;99.90;;;;;;5053312;28;20381;-85
2022/04/14 08:58:26;;;;;;;8.93;6.10;;;16.60;99.90;;;;;;5053185;28;20400;-85
2022/04/14 09:00:53;;;;;;;11.88;6.30;;;16.70;99.90;;;;;;5053160;28;20381;-85
2022/04/14 09:03:19;;;;;;;14.18;8.07;;;16.90;99.90;;;;;;5051737;28;20482;-85
2022/04/14 09:05:45;;;;;;;15.45;8.05;;;16.90;99.90;;;;;;5053350;28;20381;-85
2022/04/14 09:08:11;;;;;;;15.87;8.47;;;17.00;99.90;;;;;;5052968;28;20819;-85
2022/04/14 09:10:37;;;;;;;11.23;8.50;;;17.10;99.90;;;;;;5053248;28;20390;-85
2022/04/14 09:13:03;;;;;;;13.05;7.93;;;17.20;99.90;;;;;;5052998;28;20405;-85
2022/04/14 09:15:29;;;;;;;12.40;7.90;;;17.40;99.90;;;;;;5052946;28;20431;-85
2022/04/14 09:17:55;;;;;;;11.35;6.95;;;17.40;99.90;;;;;;5051584;28;20386;-84
2022/04/14 09:20:31;;;;;;;9.65;6.72;;;17.60;99.90;;;;;;5052769;28;20559;-84
2022/04/14 09:23:20;;;;;;;9.63;6.17;;;17.60;99.90;;;;;;5052633;28;20389;-84
2022/04/14 09:25:50;;;;;;;9.23;5.80;;;17.70;99.90;;;;;;5053019;28;20377;-84
2022/04/14 09:28:18;;;;;;;9.83;5.43;;;17.90;99.90;;;;;;5052657;28;20388;-84
2022/04/14 09:31:00;;;;;;;10.37;5.57;;;17.90;99.90;;;;;;5052935;28;20386;-86
2022/04/14 09:33:27;;;;;;;9.88;5.18;;;17.90;99.90;;;;;;5051140;28;20406;-85
2022/04/14 09:36:10;;;;;;;12.73;5.60;;;18.10;99.90;;;;;;5052468;28;20380;-85
2022/04/14 09:38:53;;;;;;;10.85;6.72;;;18.30;99.90;;;;;;5052625;28;20540;-85
2022/04/14 09:41:32;;;;;;;8.80;5.35;;;18.50;99.90;;;;;;5052794;28;20431;-85
2022/04/14 09:44:03;;;;;;;8.48;5.28;;;18.60;99.90;;;;;;5052391;28;20446;-84
2022/04/14 09:46:29;;;;;;;11.50;7.55;;;18.60;99.90;;;;;;5052665;28;20755;-85
2022/04/14 09:49:07;;;;;;;11.15;6.95;;;18.70;99.90;;;;;;5051004;28;20381;-85
2022/04/14 09:51:37;;;;;;;10.43;6.30;;;18.70;99.90;;;;;;5052311;28;20386;-85
2022/04/14 09:54:15;;;;;;;11.30;5.63;;;18.70;99.90;;;;;;5052235;28;20406;-86
2022/04/14 09:56:45;;;;;;;6.68;5.07;;;18.90;99.90;;;;;;5052500;28;20377;-85
2022/04/14 09:59:13;;;;;;;7.00;5.22;;;19.20;99.90;;;;;;5052580;28;20385;-86
2022/04/14 10:01:39;;;;;;;8.53;5.63;;;19.40;99.90;;;;;;5051941;28;20802;-86
2022/04/14 10:04:06;;;;;;;11.52;5.30;;;19.50;99.90;;;;;;5050647;28;20407;-85
2022/04/14 10:06:32;;;;;;;8.05;5.13;;;19.60;99.90;;;;;;5052077;28;20472;-86
2022/04/14 10:08:57;;;;;;;10.80;5.85;;;19.60;99.90;;;;;;5052076;28;20913;-86
2022/04/14 10:11:34;;;;;;;10.50;5.40;;;19.70;99.90;;;;;;5050798;28;20481;-86
2022/04/14 10:14:12;;;;;;;8.48;5.40;;;20.00;99.90;;;;;;5034097;28;20417;-85
2022/04/14 10:16:40;;;;;;;9.77;5.47;;;20.00;99.90;;;;;;5052768;28;20460;-85
2022/04/14 10:19:09;;;;;;;10.07;6.00;;;19.90;99.90;;;;;;5052331;28;20759;-85
2022/04/14 10:21:36;;;;;;;7.82;5.75;;;19.90;99.90;;;;;;5051965;28;20435;-85
2022/04/14 10:24:02;;;;;;;9.93;6.00;;;20.10;99.90;;;;;;5052010;28;20381;-85
2022/04/14 10:26:30;;;;;;;8.83;5.87;;;20.20;99.90;;;;;;5051141;28;20882;-86
2022/04/14 10:28:56;;;;;;;10.07;5.40;;;20.50;99.90;;;;;;5052455;28;20401;-85
2022/04/14 10:31:22;;;;;;;10.07;5.47;;;20.70;99.90;;;;;;5051973;28;20393;-86
2022/04/14 10:33:49;;;;;;;8.18;6.10;;;21.00;99.90;;;;;;5051692;28;20405;-85
2022/04/14 10:36:14;;;;;;;13.07;5.72;;;21.30;99.90;;;;;;5050593;28;20382;-86
2022/04/14 10:38:43;;;;;;;10.82;6.10;;;21.50;99.90;;;;;;5051897;28;20377;-86
2022/04/14 10:41:15;;;;;;;10.52;5.72;;;21.60;99.90;;;;;;5051681;28;20431;-85
2022/04/14 10:43:44;;;;;;;9.65;6.10;;;21.30;99.90;;;;;;5051123;28;20878;-85
2022/04/14 10:46:17;;;;;;;9.02;5.47;;;21.30;99.90;;;;;;5051710;28;20396;-86
2022/04/14 10:48:44;;;;;;;10.43;5.53;;;21.30;99.90;;;;;;5052209;28;20866;-86
2022/04/14 10:51:29;;;;;;;8.60;5.93;;;21.70;99.90;;;;;;5051731;28;20787;-86
2022/04/14 10:53:59;;;;;;;10.98;6.82;;;21.90;99.90;;;;;;5051958;28;20877;-86
2022/04/14 10:56:33;;;;;;;7.95;6.38;;;21.70;99.90;;;;;;5051278;28;20388;-86
2022/04/14 10:59:00;;;;;;;8.25;6.13;;;21.60;99.90;;;;;;5052282;28;20381;-86
2022/04/14 11:01:50;;;;;;;8.13;6.07;;;21.90;99.90;;;;;;5051759;28;20396;-86
2022/04/14 11:04:35;;;;;;;11.00;6.85;;;22.30;99.90;;;;;;5051646;28;20926;-86
2022/04/14 11:07:11;;;;;;;10.47;6.43;;;22.10;99.90;;;;;;5051811;28;20869;-85
2022/04/14 11:09:43;;;;;;;12.90;7.07;;;22.40;99.90;;;;;;5051706;28;20750;-86
2022/04/14 11:12:19;;;;;;;11.05;7.07;;;22.80;99.90;;;;;;5051660;28;20454;-86
2022/04/14 11:14:48;;;;;;;11.60;6.55;;;22.80;99.90;;;;;;5052123;28;20385;-86
2022/04/14 11:17:48;;;;;;;10.18;7.03;;;23.10;99.90;;;;;;5053871;28;20381;-86
2022/04/14 11:20:23;;;;;;;9.57;6.95;;;23.50;99.90;;;;;;5055309;28;20415;-86
2022/04/14 11:23:07;;;;;;;11.88;7.10;;;23.60;99.90;;;;;;5054991;28;20419;-86
2022/04/14 11:25:42;;;;;;;11.18;7.43;;;23.70;99.90;;;;;;5054918;28;20731;-85
2022/04/14 11:28:30;;;;;;;10.60;7.13;;;23.40;99.90;;;;;;5055443;28;20385;-86
2022/04/14 11:31:01;;;;;;;11.90;6.90;;;23.40;99.90;;;;;;5055295;28;20464;-85
2022/04/14 11:33:30;;;;;;;10.00;6.00;;;23.50;99.90;;;;;;5055359;28;20487;-86
2022/04/14 11:36:10;;;;;;;13.48;7.50;;;23.70;99.90;;;;;;5054950;28;20899;-86
2022/04/14 11:38:52;;;;;;;13.75;8.68;;;23.90;99.90;;;;;;5053810;28;20418;-86
2022/04/14 11:41:46;;;;;;;10.98;7.80;;;23.90;99.90;;;;;;5055032;28;20374;-86
2022/04/14 11:44:17;;;;;;;14.57;7.30;;;23.90;99.90;;;;;;5054735;28;20389;-86
2022/04/14 11:46:47;;;;;;;9.10;7.00;;;23.70;99.90;;;;;;5054828;28;20385;-86
2022/04/14 11:49:18;;;;;;;10.90;7.00;;;23.80;99.90;;;;;;5054867;28;20378;-85
2022/04/14 11:51:54;;;;;;;10.65;7.03;;;23.70;99.90;;;;;;5054689;28;20881;-86
2022/04/14 11:54:38;;;;;;;11.25;7.40;;;23.60;99.90;;;;;;5054499;28;20405;-86
2022/04/14 11:57:12;;;;;;;8.27;6.80;;;23.80;99.90;;;;;;5054661;28;20377;-87
2022/04/14 11:59:40;;;;;;;9.77;6.80;;;24.00;99.90;;;;;;5054581;28;20424;-86
2022/04/14 12:02:08;;;;;;;10.00;6.80;;;23.90;99.90;;;;;;5054275;28;20401;-87
2022/04/14 12:04:45;;;;;;;8.45;6.32;;;24.10;99.90;;;;;;5054174;28;20381;-86
2022/04/14 12:07:11;;;;;;;12.27;6.72;;;24.50;99.90;;;;;;5052850;28;20937;-87
2022/04/14 12:09:37;;;;;;;11.00;6.45;;;24.50;98.90;;;;;;5054182;28;20389;-86
2022/04/14 12:12:14;;;;;;;11.48;6.80;;;24.60;99.80;;;;;;5054156;28;20381;-86
2022/04/14 12:14:44;;;;;;;9.30;6.10;;;24.50;99.90;;;;;;5054047;28;20430;-86
2022/04/14 12:17:10;;;;;;;10.50;6.47;;;25.00;99.50;;;;;;5054002;28;20396;-86
2022/04/14 12:19:43;;;;;;;11.60;6.68;;;25.10;99.40;;;;;;5054242;28;20378;-85
2022/04/14 12:22:10;;;;;;;11.37;7.13;;;24.50;98.60;;;;;;5054150;28;20385;-87
2022/04/14 12:24:36;;;;;;;11.98;7.75;;;24.60;98.50;;;;;;5053992;28;20471;-88
2022/04/14 12:27:01;;;;;;;9.35;6.57;;;24.60;98.30;;;;;;5053743;28;20473;-87
2022/04/14 12:29:27;;;;;;;10.27;5.93;;;24.60;98.60;;;;;;5052631;28;20897;-86
2022/04/14 12:32:18;;;;;;;11.40;6.27;;;24.90;99.40;;;;;;5054014;28;20378;-88
2022/04/14 12:34:45;;;;;;;6.93;5.85;;;25.00;98.20;;;;;;5053986;28;20409;-86
2022/04/14 12:37:13;;;;;;;12.23;6.10;;;25.10;99.60;;;;;;5053660;28;20491;-86
2022/04/14 12:40:02;;;;;;;12.07;6.55;;;25.20;99.10;;;;;;5053585;28;20381;-87
2022/04/14 12:42:32;;;;;;;10.40;6.30;;;25.00;98.80;;;;;;5053567;28;20373;-86
2022/04/14 12:45:06;;;;;;;11.45;6.05;;;25.30;98.30;;;;;;5053566;28;20846;-86
2022/04/14 12:47:32;;;;;;;7.90;6.00;;;25.40;98.50;;;;;;5053722;28;20382;-87
2022/04/14 12:49:59;;;;;;;11.27;7.05;;;25.40;98.00;;;;;;5053411;28;20408;-87